createdAt,value
2019-05-26T00:01:37.041Z,12.70
2019-05-26T00:02:37.087Z,12.75
2019-05-26T00:04:30.065Z,12.70
2019-05-26T00:05:30.127Z,12.64
2019-05-26T00:07:30.760Z,12.67
2019-05-26T00:08:23.167Z,12.45
2019-05-26T00:10:16.218Z,12.47
2019-05-26T00:11:16.213Z,12.55
2019-05-26T00:13:09.213Z,12.47
2019-05-26T00:14:09.258Z,12.40
2019-05-26T00:16:02.236Z,12.43
2019-05-26T00:17:02.302Z,12.40
2019-05-26T00:18:55.292Z,12.37
2019-05-26T00:19:55.336Z,12.37
2019-05-26T00:21:48.336Z,12.35
2019-05-26T00:22:48.408Z,12.37
2019-05-26T00:24:41.364Z,12.35
2019-05-26T00:25:41.423Z,12.32
2019-05-26T00:27:34.429Z,12.35
2019-05-26T00:28:34.466Z,12.27
2019-05-26T00:30:27.470Z,12.39
2019-05-26T00:31:27.513Z,12.40
2019-05-26T00:33:20.504Z,12.39
2019-05-26T00:34:20.557Z,12.35
2019-05-26T00:36:13.539Z,12.36
2019-05-26T00:37:13.594Z,12.35
2019-05-26T00:39:06.595Z,12.36
2019-05-26T00:40:06.637Z,12.31
2019-05-26T00:41:59.637Z,12.40
2019-05-26T00:42:59.684Z,12.32
2019-05-26T00:44:52.671Z,12.39
2019-05-26T00:45:52.725Z,12.37
2019-05-26T00:47:45.728Z,12.45
2019-05-26T00:48:45.767Z,12.36
2019-05-26T00:50:38.768Z,12.31
2019-05-26T00:51:38.810Z,12.31
2019-05-26T00:53:31.816Z,12.21
2019-05-26T00:54:31.857Z,12.18
2019-05-26T00:56:24.855Z,12.17
2019-05-26T00:57:24.905Z,12.13
2019-05-26T00:59:17.918Z,12.06
2019-05-26T01:00:17.954Z,12.04
2019-05-26T01:02:10.953Z,12.06
2019-05-26T01:03:10.999Z,12.00
2019-05-26T01:05:03.986Z,11.97
2019-05-26T01:06:04.044Z,11.88
2019-05-26T01:08:05.977Z,11.88
2019-05-26T01:08:57.096Z,11.90
2019-05-26T01:10:50.092Z,12.10
2019-05-26T01:11:50.138Z,11.97
2019-05-26T01:13:43.194Z,12.12
2019-05-26T01:14:43.176Z,12.07
2019-05-26T01:16:36.177Z,12.27
2019-05-26T01:17:36.220Z,12.07
2019-05-26T01:19:29.205Z,12.07
2019-05-26T01:20:29.263Z,12.22
2019-05-26T01:22:22.260Z,12.09
2019-05-26T01:23:22.307Z,12.06
2019-05-26T01:25:15.302Z,11.94
2019-05-26T01:26:15.367Z,11.91
2019-05-26T01:28:08.337Z,11.91
2019-05-26T01:29:08.392Z,11.94
2019-05-26T01:31:01.400Z,11.91
2019-05-26T01:32:01.437Z,11.90
2019-05-26T01:33:54.439Z,11.87
2019-05-26T01:34:54.479Z,11.81
2019-05-26T01:36:47.485Z,11.75
2019-05-26T01:37:47.522Z,11.75
2019-05-26T01:39:40.501Z,11.70
2019-05-26T01:40:40.561Z,11.68
2019-05-26T01:42:34.071Z,11.77
2019-05-26T01:43:34.110Z,11.73
2019-05-26T01:45:27.113Z,11.69
2019-05-26T01:46:27.157Z,11.66
2019-05-26T01:48:20.137Z,11.73
2019-05-26T01:49:20.195Z,11.68
2019-05-26T01:51:13.206Z,11.60
2019-05-26T01:52:13.240Z,11.60
2019-05-26T01:54:06.256Z,11.68
2019-05-26T01:55:06.286Z,11.60
2019-05-26T01:56:59.291Z,11.51
2019-05-26T01:57:59.333Z,11.47
2019-05-26T01:59:52.316Z,11.43
2019-05-26T02:00:52.376Z,11.37
2019-05-26T02:02:45.379Z,11.29
2019-05-26T02:03:45.425Z,11.19
2019-05-26T02:05:38.433Z,11.30
2019-05-26T02:06:38.781Z,11.23
2019-05-26T02:08:39.413Z,11.22
2019-05-26T02:09:31.581Z,11.29
2019-05-26T02:11:24.608Z,11.35
2019-05-26T02:12:24.567Z,11.35
2019-05-26T02:14:17.555Z,11.44
2019-05-26T02:15:17.607Z,11.50
2019-05-26T02:17:10.601Z,11.41
2019-05-26T02:18:10.649Z,11.52
2019-05-26T02:20:03.628Z,11.43
2019-05-26T02:21:03.689Z,11.29
2019-05-26T02:22:56.695Z,11.51
2019-05-26T02:23:56.727Z,11.60
2019-05-26T02:25:49.708Z,11.62
2019-05-26T02:26:49.767Z,11.66
2019-05-26T02:28:42.771Z,11.69
2019-05-26T02:29:42.813Z,11.75
2019-05-26T02:31:35.820Z,11.68
2019-05-26T02:32:35.860Z,11.68
2019-05-26T02:34:28.856Z,11.59
2019-05-26T02:35:28.897Z,11.57
2019-05-26T02:37:21.897Z,11.59
2019-05-26T02:38:25.955Z,11.50
2019-05-26T02:40:14.921Z,11.52
2019-05-26T02:41:14.974Z,11.43
2019-05-26T02:43:07.970Z,11.43
2019-05-26T02:44:08.019Z,11.37
2019-05-26T02:46:01.027Z,11.37
2019-05-26T02:47:01.071Z,11.43
2019-05-26T02:48:54.053Z,11.30
2019-05-26T02:49:54.109Z,11.29
2019-05-26T02:51:47.108Z,11.30
2019-05-26T02:52:47.148Z,11.35
2019-05-26T02:54:40.189Z,11.47
2019-05-26T02:55:40.189Z,11.43
2019-05-26T02:57:33.182Z,11.22
2019-05-26T02:58:33.238Z,11.25
2019-05-26T03:00:26.214Z,11.29
2019-05-26T03:01:26.267Z,11.23
2019-05-26T03:03:19.273Z,11.25
2019-05-26T03:04:19.311Z,11.25
2019-05-26T03:06:12.309Z,11.25
2019-05-26T03:07:12.349Z,11.23
2019-05-26T03:09:21.924Z,11.25
2019-05-26T03:10:05.392Z,11.29
2019-05-26T03:11:58.399Z,11.27
2019-05-26T03:12:58.439Z,11.26
2019-05-26T03:14:51.426Z,11.18
2019-05-26T03:15:51.485Z,11.08
2019-05-26T03:17:44.483Z,11.25
2019-05-26T03:18:44.525Z,11.19
2019-05-26T03:20:37.503Z,11.25
2019-05-26T03:21:37.563Z,11.12
2019-05-26T03:23:30.573Z,11.25
2019-05-26T03:24:30.619Z,11.26
2019-05-26T03:26:23.623Z,11.22
2019-05-26T03:27:23.655Z,11.27
2019-05-26T03:29:16.634Z,11.23
2019-05-26T03:30:16.693Z,11.25
2019-05-26T03:32:09.708Z,11.35
2019-05-26T03:33:09.755Z,11.40
2019-05-26T03:35:02.773Z,11.43
2019-05-26T03:36:02.794Z,11.40
2019-05-26T03:37:55.790Z,11.47
2019-05-26T03:38:55.840Z,11.44
2019-05-26T03:40:48.822Z,11.43
2019-05-26T03:41:48.880Z,11.50
2019-05-26T03:43:41.880Z,11.52
2019-05-26T03:44:41.918Z,11.48
2019-05-26T03:46:34.990Z,11.55
2019-05-26T03:47:34.967Z,11.62
2019-05-26T03:49:27.953Z,11.60
2019-05-26T03:50:28.009Z,11.66
2019-05-26T03:52:21.018Z,11.70
2019-05-26T03:53:21.055Z,11.75
2019-05-26T03:55:14.049Z,11.83
2019-05-26T03:56:14.092Z,11.84
2019-05-26T03:58:07.077Z,11.86
2019-05-26T03:59:07.131Z,11.84
2019-05-26T04:01:00.132Z,11.83
2019-05-26T04:02:00.173Z,11.86
2019-05-26T04:03:53.680Z,11.87
2019-05-26T04:04:53.720Z,11.94
2019-05-26T04:06:46.755Z,11.91
2019-05-26T04:07:46.766Z,11.95
2019-05-26T04:09:39.744Z,11.90
2019-05-26T04:10:39.802Z,11.84
2019-05-26T04:12:32.800Z,11.95
2019-05-26T04:13:32.844Z,11.95
2019-05-26T04:15:25.826Z,11.90
2019-05-26T04:16:25.891Z,11.91
2019-05-26T04:18:18.879Z,12.03
2019-05-26T04:19:18.923Z,11.95
2019-05-26T04:21:11.906Z,11.99
2019-05-26T04:22:11.968Z,11.99
2019-05-26T04:24:04.964Z,12.07
2019-05-26T04:25:05.012Z,12.12
2019-05-26T04:26:58.012Z,12.10
2019-05-26T04:27:58.055Z,12.09
2019-05-26T04:29:51.050Z,12.17
2019-05-26T04:30:51.098Z,12.12
2019-05-26T04:32:44.090Z,12.24
2019-05-26T04:33:44.138Z,12.22
2019-05-26T04:35:37.124Z,12.27
2019-05-26T04:36:37.177Z,12.29
2019-05-26T04:38:30.178Z,12.40
2019-05-26T04:39:30.225Z,12.42
2019-05-26T04:41:23.198Z,12.46
2019-05-26T04:42:23.260Z,12.55
2019-05-26T04:44:16.259Z,12.50
2019-05-26T04:45:16.297Z,12.61
2019-05-26T04:47:09.283Z,12.73
2019-05-26T04:48:09.342Z,12.73
2019-05-26T04:50:02.346Z,12.76
2019-05-26T04:51:02.392Z,12.86
2019-05-26T04:53:06.354Z,12.85
2019-05-26T04:53:55.424Z,12.87
2019-05-26T04:55:48.420Z,12.94
2019-05-26T04:56:48.467Z,12.97
2019-05-26T04:58:41.466Z,13.15
2019-05-26T04:59:41.510Z,13.13
2019-05-26T05:01:34.511Z,13.22
2019-05-26T05:02:34.560Z,13.22
2019-05-26T05:04:29.055Z,13.31
2019-05-26T05:05:29.109Z,13.39
2019-05-26T05:07:22.111Z,13.47
2019-05-26T05:08:22.153Z,13.41
2019-05-26T05:10:15.124Z,13.49
2019-05-26T05:11:15.190Z,13.50
2019-05-26T05:13:08.194Z,13.53
2019-05-26T05:14:08.232Z,13.54
2019-05-26T05:16:01.230Z,13.60
2019-05-26T05:17:01.272Z,13.68
2019-05-26T05:18:54.254Z,13.79
2019-05-26T05:19:54.321Z,13.77
2019-05-26T05:21:47.317Z,13.95
2019-05-26T05:22:47.381Z,13.97
2019-05-26T05:24:40.339Z,14.05
2019-05-26T05:25:40.395Z,14.18
2019-05-26T05:27:33.400Z,14.23
2019-05-26T05:28:33.440Z,14.29
2019-05-26T05:30:26.443Z,14.45
2019-05-26T05:31:26.509Z,14.47
2019-05-26T05:33:19.466Z,14.62
2019-05-26T05:34:19.524Z,14.63
2019-05-26T05:36:12.534Z,14.66
2019-05-26T05:37:12.580Z,14.66
2019-05-26T05:39:05.570Z,14.63
2019-05-26T05:40:05.628Z,14.65
2019-05-26T05:41:58.658Z,14.65
2019-05-26T05:42:58.690Z,14.65
2019-05-26T05:44:51.658Z,14.60
2019-05-26T05:45:51.723Z,14.66
2019-05-26T05:47:44.716Z,14.77
2019-05-26T05:48:44.764Z,14.85
2019-05-26T05:50:39.365Z,14.81
2019-05-26T05:51:37.804Z,14.84
2019-05-26T05:53:30.815Z,14.99
2019-05-26T05:54:30.851Z,15.02
2019-05-26T05:56:23.844Z,15.21
2019-05-26T05:57:23.896Z,15.39
2019-05-26T05:59:16.899Z,15.44
2019-05-26T06:00:16.942Z,15.47
2019-05-26T06:02:09.925Z,15.72
2019-05-26T06:03:09.986Z,15.72
2019-05-26T06:05:02.984Z,15.70
2019-05-26T06:06:03.054Z,15.62
2019-05-26T06:07:56.015Z,15.68
2019-05-26T06:08:56.075Z,15.79
2019-05-26T06:10:49.079Z,15.88
2019-05-26T06:11:53.083Z,15.95
2019-05-26T06:13:42.122Z,15.88
2019-05-26T06:14:42.180Z,16.02
2019-05-26T06:16:35.185Z,16.08
2019-05-26T06:17:35.212Z,16.02
2019-05-26T06:19:28.217Z,16.16
2019-05-26T06:20:28.254Z,16.29
2019-05-26T06:22:21.247Z,16.56
2019-05-26T06:23:21.322Z,16.49
2019-05-26T06:25:14.361Z,16.39
2019-05-26T06:26:14.374Z,16.36
2019-05-26T06:28:07.419Z,16.29
2019-05-26T06:29:07.420Z,16.47
2019-05-26T06:31:00.465Z,16.36
2019-05-26T06:32:00.809Z,16.38
2019-05-26T06:33:53.463Z,16.56
2019-05-26T06:34:53.518Z,16.58
2019-05-26T06:36:46.575Z,16.86
2019-05-26T06:37:46.572Z,16.79
2019-05-26T06:39:39.559Z,17.19
2019-05-26T06:40:39.632Z,17.30
2019-05-26T06:42:32.646Z,17.70
2019-05-26T06:43:32.653Z,17.94
2019-05-26T06:45:25.654Z,18.28
2019-05-26T06:46:25.703Z,18.60
2019-05-26T06:48:18.709Z,18.53
2019-05-26T06:49:18.750Z,18.47
2019-05-26T06:51:11.766Z,18.84
2019-05-26T06:52:11.823Z,19.21
2019-05-26T06:54:04.827Z,19.08
2019-05-26T06:55:04.879Z,19.26
2019-05-26T06:56:57.865Z,19.47
2019-05-26T06:57:57.931Z,19.37
2019-05-26T06:59:50.938Z,19.86
2019-05-26T07:00:50.992Z,19.56
2019-05-26T07:02:43.990Z,19.56
2019-05-26T07:03:44.051Z,19.94
2019-05-26T07:05:37.058Z,19.92
2019-05-26T07:06:37.104Z,19.47
2019-05-26T07:08:30.092Z,19.54
2019-05-26T07:09:30.157Z,19.81
2019-05-26T07:11:23.165Z,21.21
2019-05-26T07:12:23.211Z,22.43
2019-05-26T07:14:16.207Z,23.36
2019-05-26T07:15:16.284Z,23.98
2019-05-26T07:17:09.292Z,24.80
2019-05-26T07:18:09.377Z,25.33
2019-05-26T07:20:02.429Z,26.18
2019-05-26T07:21:02.407Z,27.10
2019-05-26T07:22:55.443Z,27.42
2019-05-26T07:23:55.483Z,26.84
2019-05-26T07:25:48.713Z,26.34
2019-05-26T07:26:48.845Z,25.47
2019-05-26T07:28:41.555Z,25.26
2019-05-26T07:29:41.616Z,25.75
2019-05-26T07:31:34.638Z,24.35
2019-05-26T07:32:34.688Z,25.08
2019-05-26T07:34:27.693Z,24.61
2019-05-26T07:35:27.762Z,24.38
2019-05-26T07:37:20.811Z,23.62
2019-05-26T07:38:21.185Z,23.44
2019-05-26T07:40:13.866Z,23.05
2019-05-26T07:41:13.935Z,22.60
2019-05-26T07:43:06.968Z,22.11
2019-05-26T07:44:07.007Z,21.64
2019-05-26T07:46:00.018Z,21.27
2019-05-26T07:47:00.089Z,21.22
2019-05-26T07:48:53.099Z,21.02
2019-05-26T07:49:53.154Z,20.95
2019-05-26T07:51:46.150Z,20.60
2019-05-26T07:52:46.224Z,20.66
2019-05-26T07:54:39.232Z,20.19
2019-05-26T07:55:39.280Z,20.04
2019-05-26T07:57:32.327Z,20.11
2019-05-26T08:00:40.909Z,20.22
2019-05-26T08:11:31.144Z,20.16
2019-05-26T08:12:31.177Z,20.06
2019-05-26T08:14:24.165Z,20.09
2019-05-26T08:15:24.233Z,20.04
2019-05-26T08:17:17.240Z,20.14
2019-05-26T08:18:17.285Z,20.10
2019-05-26T08:20:10.296Z,20.31
2019-05-26T08:21:10.340Z,20.39
2019-05-26T08:23:03.349Z,20.26
2019-05-26T08:24:03.394Z,20.34
2019-05-26T08:25:56.927Z,20.21
2019-05-26T08:26:56.954Z,20.31
2019-05-26T08:28:49.951Z,20.41
2019-05-26T08:29:50.011Z,20.50
2019-05-26T08:31:43.033Z,20.47
2019-05-26T08:32:43.064Z,20.31
2019-05-26T08:34:36.076Z,20.56
2019-05-26T08:35:36.145Z,20.29
2019-05-26T08:37:29.136Z,20.07
2019-05-26T08:38:29.181Z,20.06
2019-05-26T08:40:22.204Z,20.03
2019-05-26T08:41:22.236Z,19.95
2019-05-26T08:43:15.250Z,19.85
2019-05-26T08:44:15.295Z,19.82
2019-05-26T08:46:08.291Z,19.86
2019-05-26T08:47:08.349Z,19.99
2019-05-26T08:49:01.351Z,19.91
2019-05-26T08:50:01.408Z,19.94
2019-05-26T08:51:54.419Z,19.91
2019-05-26T08:52:54.468Z,19.99
2019-05-26T08:54:47.509Z,19.86
2019-05-26T08:55:47.527Z,19.76
2019-05-26T08:57:40.518Z,19.63
2019-05-26T08:58:40.583Z,19.54
2019-05-26T09:00:33.605Z,19.56
2019-05-26T09:01:33.642Z,19.56
2019-05-26T09:03:26.641Z,19.41
2019-05-26T09:04:26.707Z,19.55
2019-05-26T09:06:19.719Z,19.49
2019-05-26T09:07:19.760Z,19.49
2019-05-26T09:09:12.770Z,19.82
2019-05-26T09:10:12.816Z,19.84
2019-05-26T09:12:05.829Z,20.04
2019-05-26T09:13:05.884Z,20.36
2019-05-26T09:14:58.869Z,20.41
2019-05-26T09:15:58.928Z,20.39
2019-05-26T09:17:51.942Z,20.85
2019-05-26T09:18:51.982Z,20.88
2019-05-26T09:20:44.997Z,20.92
2019-05-26T09:21:45.054Z,21.06
2019-05-26T09:23:38.043Z,20.95
2019-05-26T09:24:38.111Z,21.12
2019-05-26T09:26:31.124Z,21.17
2019-05-26T09:27:31.168Z,20.99
2019-05-26T09:29:24.173Z,20.96
2019-05-26T09:30:24.225Z,20.96
2019-05-26T09:32:17.235Z,20.95
2019-05-26T09:33:17.279Z,20.88
2019-05-26T09:35:10.291Z,21.43
2019-05-26T09:36:10.338Z,21.50
2019-05-26T09:38:03.349Z,21.48
2019-05-26T09:39:03.393Z,21.32
2019-05-26T09:40:56.412Z,21.42
2019-05-26T09:41:56.457Z,21.64
2019-05-26T09:43:49.466Z,21.93
2019-05-26T09:44:49.537Z,22.13
2019-05-26T09:46:42.511Z,21.92
2019-05-26T09:47:42.573Z,21.83
2019-05-26T09:49:35.586Z,21.99
2019-05-26T09:50:35.638Z,22.08
2019-05-26T09:52:28.634Z,22.08
2019-05-26T09:53:28.694Z,22.15
2019-05-26T09:55:21.709Z,22.13
2019-05-26T09:56:21.755Z,22.28
2019-05-26T09:58:14.754Z,22.25
2019-05-26T09:59:14.816Z,22.22
2019-05-26T10:01:07.830Z,22.68
2019-05-26T10:02:07.879Z,22.90
2019-05-26T10:04:00.879Z,22.84
2019-05-26T10:05:00.935Z,23.02
2019-05-26T10:06:53.951Z,23.17
2019-05-26T10:07:53.999Z,23.02
2019-05-26T10:09:47.018Z,23.15
2019-05-26T10:10:47.059Z,22.91
2019-05-26T10:12:40.073Z,23.36
2019-05-26T10:13:40.120Z,23.47
2019-05-26T10:15:33.118Z,23.58
2019-05-26T10:16:33.180Z,23.63
2019-05-26T10:18:26.195Z,23.92
2019-05-26T10:19:26.246Z,23.81
2019-05-26T10:21:19.246Z,24.03
2019-05-26T10:22:19.306Z,24.21
2019-05-26T10:24:12.342Z,24.17
2019-05-26T10:25:12.395Z,23.91
2019-05-26T10:27:05.406Z,24.05
2019-05-26T10:28:05.453Z,24.06
2019-05-26T10:29:58.454Z,23.74
2019-05-26T10:30:58.515Z,23.74
2019-05-26T10:32:51.528Z,23.39
2019-05-26T10:33:51.577Z,23.10
2019-05-26T10:35:44.587Z,23.36
2019-05-26T10:36:44.643Z,23.46
2019-05-26T10:38:37.636Z,23.66
2019-05-26T10:39:37.705Z,23.73
2019-05-26T10:41:30.710Z,23.65
2019-05-26T10:42:30.763Z,23.27
2019-05-26T10:44:23.773Z,23.27
2019-05-26T10:45:23.822Z,23.63
2019-05-26T10:47:16.819Z,23.77
2019-05-26T10:48:16.884Z,23.91
2019-05-26T10:50:09.926Z,24.01
2019-05-26T10:51:09.954Z,23.87
2019-05-26T10:53:02.953Z,23.87
2019-05-26T10:54:03.026Z,23.91
2019-05-26T10:55:56.026Z,24.01
2019-05-26T10:56:56.082Z,24.23
2019-05-26T10:58:49.069Z,24.24
2019-05-26T10:59:49.137Z,24.51
2019-05-26T11:01:42.148Z,24.33
2019-05-26T11:02:42.195Z,24.51
2019-05-26T11:04:35.200Z,24.39
2019-05-26T11:05:35.275Z,23.98
2019-05-26T11:07:28.297Z,23.83
2019-05-26T11:08:28.457Z,23.74
2019-05-26T11:10:21.326Z,23.55
2019-05-26T11:11:21.409Z,23.58
2019-05-26T11:13:14.406Z,23.68
2019-05-26T11:14:14.478Z,23.77
2019-05-26T11:16:07.462Z,23.77
2019-05-26T11:17:07.518Z,24.03
2019-05-26T11:19:00.515Z,24.32
2019-05-26T11:20:00.581Z,24.28
2019-05-26T11:21:53.602Z,24.20
2019-05-26T11:22:53.643Z,24.14
2019-05-26T11:24:46.663Z,24.57
2019-05-26T11:25:46.703Z,24.39
2019-05-26T11:27:39.712Z,24.51
2019-05-26T11:28:39.767Z,24.65
2019-05-26T11:30:32.761Z,24.48
2019-05-26T11:31:32.835Z,24.40
2019-05-26T11:33:25.847Z,24.03
2019-05-26T11:34:25.909Z,23.92
2019-05-26T11:36:18.911Z,24.17
2019-05-26T11:37:18.971Z,24.16
2019-05-26T11:39:11.960Z,24.13
2019-05-26T11:40:12.020Z,24.33
2019-05-26T11:42:13.445Z,23.87
2019-05-26T11:43:16.283Z,23.86
2019-05-26T11:44:58.109Z,23.92
2019-05-26T11:45:58.157Z,23.87
2019-05-26T11:47:51.164Z,24.11
2019-05-26T11:48:51.270Z,23.92
2019-05-26T11:50:44.315Z,24.06
2019-05-26T11:51:44.342Z,24.26
2019-05-26T11:53:37.327Z,24.38
2019-05-26T11:54:37.399Z,24.47
2019-05-26T11:56:30.501Z,24.58
2019-05-26T11:57:30.436Z,24.77
2019-05-26T11:59:23.438Z,24.26
2019-05-26T12:00:23.493Z,24.55
2019-05-26T12:02:16.545Z,24.47
2019-05-26T12:03:16.572Z,24.63
2019-05-26T12:05:09.685Z,24.76
2019-05-26T12:06:09.667Z,25.03
2019-05-26T12:08:02.653Z,25.07
2019-05-26T12:09:02.722Z,25.03
2019-05-26T12:10:58.367Z,24.92
2019-05-26T12:11:55.823Z,24.93
2019-05-26T12:13:48.775Z,24.95
2019-05-26T12:14:48.953Z,25.07
2019-05-26T12:16:41.842Z,25.29
2019-05-26T12:17:41.932Z,25.50
2019-05-26T12:19:34.898Z,25.29
2019-05-26T12:20:34.966Z,25.21
2019-05-26T12:22:28.023Z,25.36
2019-05-26T12:23:28.039Z,25.17
2019-05-26T12:25:21.039Z,25.10
2019-05-26T12:26:21.104Z,25.10
2019-05-26T12:28:14.118Z,25.43
2019-05-26T12:29:14.170Z,25.60
2019-05-26T12:31:07.170Z,25.25
2019-05-26T12:32:07.231Z,25.46
2019-05-26T12:34:00.242Z,25.58
2019-05-26T12:35:00.384Z,25.40
2019-05-26T12:36:53.315Z,24.68
2019-05-26T12:37:53.364Z,24.55
2019-05-26T12:39:46.373Z,24.54
2019-05-26T12:40:46.420Z,24.48
2019-05-26T12:42:39.462Z,24.51
2019-05-26T12:43:39.491Z,24.80
2019-05-26T12:45:32.543Z,25.03
2019-05-26T12:46:32.571Z,25.10
2019-05-26T12:48:25.579Z,25.13
2019-05-26T12:49:27.719Z,25.10
2019-05-26T12:51:18.633Z,24.92
2019-05-26T12:52:18.706Z,24.93
2019-05-26T12:54:11.723Z,24.48
2019-05-26T12:55:11.766Z,24.33
2019-05-26T12:57:04.766Z,24.50
2019-05-26T12:58:04.827Z,24.66
2019-05-26T12:59:57.845Z,24.78
2019-05-26T13:00:57.890Z,24.80
2019-05-26T13:02:51.161Z,24.86
2019-05-26T13:03:50.955Z,24.85
2019-05-26T13:05:43.957Z,24.92
2019-05-26T13:06:44.028Z,25.06
2019-05-26T13:08:37.041Z,25.32
2019-05-26T13:09:37.089Z,25.32
2019-05-26T13:11:30.086Z,25.28
2019-05-26T13:12:30.154Z,25.26
2019-05-26T13:14:23.160Z,25.29
2019-05-26T13:15:23.215Z,25.26
2019-05-26T13:17:16.237Z,25.23
2019-05-26T13:18:16.280Z,25.17
2019-05-26T13:20:09.278Z,24.81
2019-05-26T13:21:09.345Z,24.80
2019-05-26T13:23:02.358Z,24.93
2019-05-26T13:24:02.411Z,24.93
2019-05-26T13:25:55.410Z,25.06
2019-05-26T13:26:55.475Z,25.07
2019-05-26T13:28:48.515Z,25.07
2019-05-26T13:29:48.563Z,25.14
2019-05-26T13:31:41.574Z,25.08
2019-05-26T13:32:41.624Z,24.92
2019-05-26T13:34:35.811Z,24.77
2019-05-26T13:35:34.688Z,24.92
2019-05-26T13:37:27.688Z,24.92
2019-05-26T13:38:27.757Z,24.70
2019-05-26T13:40:21.304Z,24.80
2019-05-26T13:41:21.329Z,24.85
2019-05-26T13:43:14.325Z,24.85
2019-05-26T13:44:14.390Z,24.70
2019-05-26T13:46:07.406Z,24.57
2019-05-26T13:47:07.454Z,24.53
2019-05-26T13:49:00.473Z,24.45
2019-05-26T13:50:00.514Z,24.50
2019-05-26T13:51:53.541Z,24.35
2019-05-26T13:52:53.583Z,24.16
2019-05-26T13:54:46.588Z,24.05
2019-05-26T13:55:46.642Z,23.84
2019-05-26T13:57:39.641Z,23.71
2019-05-26T13:58:39.703Z,23.59
2019-05-26T14:00:32.720Z,23.50
2019-05-26T14:01:32.765Z,23.50
2019-05-26T14:03:25.792Z,23.46
2019-05-26T14:04:25.828Z,23.34
2019-05-26T14:06:18.826Z,23.24
2019-05-26T14:07:18.893Z,23.13
2019-05-26T14:09:11.904Z,23.05
2019-05-26T14:10:11.971Z,22.98
2019-05-26T14:12:04.994Z,22.96
2019-05-26T14:13:05.014Z,22.87
2019-05-26T14:14:58.057Z,22.80
2019-05-26T14:15:58.074Z,22.78
2019-05-26T14:17:51.074Z,22.91
2019-05-26T14:18:51.139Z,23.05
2019-05-26T14:20:44.165Z,23.03
2019-05-26T14:21:44.199Z,23.17
2019-05-26T14:23:37.193Z,23.23
2019-05-26T14:24:50.898Z,23.36
2019-05-26T14:26:30.289Z,23.39
2019-05-26T14:27:30.382Z,23.51
2019-05-26T14:29:23.348Z,23.41
2019-05-26T14:30:23.391Z,23.55
2019-05-26T14:32:16.401Z,23.58
2019-05-26T14:33:16.456Z,23.65
2019-05-26T14:35:09.479Z,23.51
2019-05-26T14:36:09.518Z,23.46
2019-05-26T14:38:02.520Z,23.50
2019-05-26T14:39:02.579Z,23.55
2019-05-26T14:40:55.604Z,23.55
2019-05-26T14:41:55.640Z,23.50
2019-05-26T14:43:48.655Z,23.69
2019-05-26T14:44:48.705Z,23.66
2019-05-26T14:46:41.714Z,23.69
2019-05-26T14:47:41.760Z,23.92
2019-05-26T14:49:34.779Z,23.81
2019-05-26T14:50:34.825Z,23.74
2019-05-26T14:52:27.837Z,23.87
2019-05-26T14:53:27.885Z,23.91
2019-05-26T14:55:21.390Z,23.86
2019-05-26T14:56:21.478Z,23.76
2019-05-26T14:58:16.472Z,23.68
2019-05-26T14:59:14.510Z,23.73
2019-05-26T15:01:07.510Z,23.66
2019-05-26T15:02:07.575Z,23.63
2019-05-26T15:04:00.598Z,23.50
2019-05-26T15:05:00.645Z,23.39
2019-05-26T15:06:53.641Z,23.31
2019-05-26T15:07:53.702Z,23.32
2019-05-26T15:09:46.711Z,23.18
2019-05-26T15:10:46.760Z,23.10
2019-05-26T15:12:39.783Z,23.25
2019-05-26T15:13:39.819Z,23.28
2019-05-26T15:15:35.010Z,23.28
2019-05-26T15:16:32.882Z,23.24
2019-05-26T15:18:25.896Z,23.24
2019-05-26T15:19:25.940Z,23.32
2019-05-26T15:21:18.936Z,23.13
2019-05-26T15:22:19.002Z,23.27
2019-05-26T15:24:12.034Z,23.44
2019-05-26T15:25:12.088Z,23.51
2019-05-26T15:27:05.079Z,23.61
2019-05-26T15:28:05.172Z,23.61
2019-05-26T15:29:58.153Z,23.51
2019-05-26T15:30:58.227Z,23.61
2019-05-26T15:32:51.242Z,23.56
2019-05-26T15:33:51.281Z,23.54
2019-05-26T15:35:44.993Z,23.56
2019-05-26T15:36:44.345Z,23.47
2019-05-26T15:38:42.899Z,23.47
2019-05-26T15:39:37.394Z,23.44
2019-05-26T15:41:30.405Z,23.54
2019-05-26T15:42:30.452Z,23.56
2019-05-26T15:44:23.448Z,23.59
2019-05-26T15:45:23.515Z,23.56
2019-05-26T15:47:16.528Z,23.62
2019-05-26T15:48:16.576Z,23.65
2019-05-26T15:50:12.801Z,23.66
2019-05-26T15:51:09.640Z,23.69
2019-05-26T15:53:02.655Z,23.62
2019-05-26T15:54:02.695Z,23.61
2019-05-26T15:55:56.215Z,23.50
2019-05-26T15:56:56.262Z,23.36
2019-05-26T15:58:49.419Z,23.62
2019-05-26T15:59:49.322Z,23.50
2019-05-26T16:01:42.369Z,23.36
2019-05-26T16:02:42.540Z,23.23
2019-05-26T16:04:35.413Z,23.28
2019-05-26T16:05:35.472Z,23.31
2019-05-26T16:07:28.588Z,23.27
2019-05-26T16:08:28.581Z,23.28
2019-05-26T16:10:21.541Z,23.27
2019-05-26T16:11:21.610Z,23.20
2019-05-26T16:13:14.626Z,22.94
2019-05-26T16:14:14.671Z,22.69
2019-05-26T16:16:07.684Z,22.69
2019-05-26T16:17:07.727Z,22.69
2019-05-26T16:19:00.722Z,22.55
2019-05-26T16:20:00.789Z,22.59
2019-05-26T16:21:53.796Z,22.51
2019-05-26T16:22:53.843Z,22.54
2019-05-26T16:24:46.835Z,22.50
2019-05-26T16:25:46.902Z,22.54
2019-05-26T16:27:39.914Z,22.43
2019-05-26T16:28:39.963Z,22.39
2019-05-26T16:30:32.951Z,22.48
2019-05-26T16:31:33.016Z,22.39
2019-05-26T16:33:26.026Z,22.35
2019-05-26T16:34:26.077Z,22.32
2019-05-26T16:36:21.240Z,22.30
2019-05-26T16:37:19.129Z,22.23
2019-05-26T16:39:12.136Z,22.30
2019-05-26T16:40:12.190Z,22.30
2019-05-26T16:42:05.214Z,22.38
2019-05-26T16:43:05.243Z,22.50
2019-05-26T16:44:58.263Z,22.54
2019-05-26T16:45:58.301Z,22.69
2019-05-26T16:47:51.313Z,22.65
2019-05-26T16:48:54.482Z,22.76
2019-05-26T16:50:44.358Z,22.91
2019-05-26T16:51:44.566Z,22.90
2019-05-26T16:53:37.497Z,22.94
2019-05-26T16:54:37.488Z,22.98
2019-05-26T16:56:30.491Z,23.13
2019-05-26T16:57:30.550Z,23.02
2019-05-26T16:59:23.564Z,23.06
2019-05-26T17:00:23.620Z,23.05
2019-05-26T17:02:16.605Z,22.98
2019-05-26T17:03:16.671Z,22.99
2019-05-26T17:05:09.713Z,22.90
2019-05-26T17:06:09.728Z,22.96
2019-05-26T17:08:02.743Z,22.91
2019-05-26T17:09:02.787Z,22.83
2019-05-26T17:10:55.802Z,22.78
2019-05-26T17:11:55.937Z,22.63
2019-05-26T17:13:48.847Z,22.70
2019-05-26T17:14:48.909Z,22.68
2019-05-26T17:16:42.021Z,22.78
2019-05-26T17:17:43.320Z,22.76
2019-05-26T17:19:35.039Z,22.78
2019-05-26T17:20:35.074Z,22.78
2019-05-26T17:22:28.251Z,22.83
2019-05-26T17:23:28.188Z,22.85
2019-05-26T17:25:21.150Z,22.78
2019-05-26T17:26:21.173Z,22.63
2019-05-26T17:28:14.447Z,22.57
2019-05-26T17:29:14.412Z,22.59
2019-05-26T17:31:07.267Z,22.47
2019-05-26T17:32:07.333Z,22.55
2019-05-26T17:34:00.341Z,22.38
2019-05-26T17:35:00.370Z,22.44
2019-05-26T17:36:53.374Z,22.57
2019-05-26T17:37:53.430Z,22.60
2019-05-26T17:39:46.561Z,22.55
2019-05-26T17:40:46.689Z,22.59
2019-05-26T17:43:01.993Z,22.55
2019-05-26T17:44:01.002Z,22.50
2019-05-26T17:45:53.803Z,22.47
2019-05-26T17:46:53.811Z,22.36
2019-05-26T17:48:46.833Z,22.48
2019-05-26T17:49:46.898Z,22.41
2019-05-26T17:51:39.878Z,22.44
2019-05-26T17:52:39.944Z,22.45
2019-05-26T17:54:32.951Z,22.36
2019-05-26T17:55:33.184Z,22.33
2019-05-26T17:57:26.002Z,22.50
2019-05-26T17:58:26.056Z,22.55
2019-05-26T18:00:19.098Z,22.33
2019-05-26T18:01:19.118Z,22.30
2019-05-26T18:03:12.110Z,22.23
2019-05-26T18:04:12.175Z,22.25
2019-05-26T18:06:05.217Z,22.22
2019-05-26T18:07:05.235Z,22.18
2019-05-26T18:08:58.230Z,22.28
2019-05-26T18:09:58.297Z,22.25
2019-05-26T18:11:51.306Z,22.23
2019-05-26T18:12:51.350Z,22.11
2019-05-26T18:14:44.367Z,22.06
2019-05-26T18:15:44.405Z,21.93
2019-05-26T18:17:46.411Z,21.98
2019-05-26T18:18:37.483Z,21.95
2019-05-26T18:20:30.481Z,21.83
2019-05-26T18:21:30.522Z,21.91
2019-05-26T18:23:23.530Z,21.85
2019-05-26T18:24:23.581Z,21.82
2019-05-26T18:26:16.582Z,21.80
2019-05-26T18:27:16.644Z,21.76
2019-05-26T18:29:09.740Z,21.80
2019-05-26T18:30:09.741Z,21.75
2019-05-26T18:32:03.357Z,21.79
2019-05-26T18:33:02.764Z,21.73
2019-05-26T18:34:55.776Z,21.64
2019-05-26T18:35:55.820Z,21.66
2019-05-26T18:37:52.148Z,21.57
2019-05-26T18:38:48.873Z,21.52
2019-05-26T18:40:41.879Z,21.54
2019-05-26T18:41:41.928Z,21.50
2019-05-26T18:43:34.955Z,21.37
2019-05-26T18:44:35.014Z,21.42
2019-05-26T18:46:28.012Z,21.46